sensor_id;sensor_type;location;lat;lon;timestamp;P1;durP1;ratioP1;P2;durP2;ratioP2
69551;SDS011;63774;45.292;11.784;2024-01-15T00:02:15;21.70;;;14.60;;
69551;SDS011;63774;45.292;11.784;2024-01-15T00:04:40;20.70;;;14.50;;
69551;SDS011;63774;45.292;11.784;2024-01-15T00:07:06;23.20;;;14.70;;
69551;SDS011;63774;45.292;11.784;2024-01-15T00:09:33;21.10;;;14.80;;
69551;SDS011;63774;45.292;11.784;2024-01-15T00:11:59;23.90;;;15.10;;
69551;SDS011;63774;45.292;11.784;2024-01-15T00:14:26;22.80;;;15.10;;
69551;SDS011;63774;45.292;11.784;2024-01-15T00:16:51;21.90;;;14.40;;
69551;SDS011;63774;45.292;11.784;2024-01-15T00:19:17;21.00;;;14.50;;
69551;SDS011;63774;45.292;11.784;2024-01-15T00:21:43;21.70;;;14.20;;
69551;SDS011;63774;45.292;11.784;2024-01-15T00:24:09;22.50;;;14.40;;
69551;SDS011;63774;45.292;11.784;2024-01-15T00:26:35;22.40;;;14.20;;
69551;SDS011;63774;45.292;11.784;2024-01-15T00:29:00;22.10;;;14.70;;
69551;SDS011;63774;45.292;11.784;2024-01-15T00:31:26;22.80;;;14.40;;
69551;SDS011;63774;45.292;11.784;2024-01-15T00:33:51;22.00;;;14.20;;
69551;SDS011;63774;45.292;11.784;2024-01-15T00:36:17;23.30;;;14.10;;
69551;SDS011;63774;45.292;11.784;2024-01-15T00:38:43;20.20;;;13.20;;
69551;SDS011;63774;45.292;11.784;2024-01-15T00:41:09;21.70;;;14.30;;
69551;SDS011;63774;45.292;11.784;2024-01-15T00:43:35;20.10;;;13.50;;
69551;SDS011;63774;45.292;11.784;2024-01-15T00:46:04;22.30;;;14.10;;
69551;SDS011;63774;45.292;11.784;2024-01-15T00:48:30;20.90;;;13.50;;
69551;SDS011;63774;45.292;11.784;2024-01-15T00:50:55;21.10;;;13.80;;
69551;SDS011;63774;45.292;11.784;2024-01-15T00:53:21;21.60;;;13.90;;
69551;SDS011;63774;45.292;11.784;2024-01-15T00:55:49;19.60;;;13.20;;
69551;SDS011;63774;45.292;11.784;2024-01-15T00:58:15;20.80;;;13.70;;
69551;SDS011;63774;45.292;11.784;2024-01-15T01:00:41;21.40;;;13.80;;
69551;SDS011;63774;45.292;11.784;2024-01-15T01:03:06;20.60;;;13.90;;
69551;SDS011;63774;45.292;11.784;2024-01-15T01:05:33;22.40;;;14.20;;
69551;SDS011;63774;45.292;11.784;2024-01-15T01:07:59;21.60;;;14.30;;
69551;SDS011;63774;45.292;11.784;2024-01-15T01:10:24;21.70;;;13.90;;
69551;SDS011;63774;45.292;11.784;2024-01-15T01:12:50;19.60;;;14.30;;
69551;SDS011;63774;45.292;11.784;2024-01-15T01:15:16;21.90;;;14.40;;
69551;SDS011;63774;45.292;11.784;2024-01-15T01:17:41;20.60;;;13.70;;
69551;SDS011;63774;45.292;11.784;2024-01-15T01:20:10;18.30;;;13.00;;
69551;SDS011;63774;45.292;11.784;2024-01-15T01:22:36;21.90;;;13.90;;
69551;SDS011;63774;45.292;11.784;2024-01-15T01:25:01;20.30;;;13.40;;
69551;SDS011;63774;45.292;11.784;2024-01-15T01:27:27;19.90;;;13.30;;
69551;SDS011;63774;45.292;11.784;2024-01-15T01:29:53;20.70;;;13.90;;
69551;SDS011;63774;45.292;11.784;2024-01-15T01:32:18;22.10;;;13.50;;
69551;SDS011;63774;45.292;11.784;2024-01-15T01:34:44;20.10;;;12.80;;
69551;SDS011;63774;45.292;11.784;2024-01-15T01:37:10;18.50;;;12.90;;
69551;SDS011;63774;45.292;11.784;2024-01-15T01:39:37;22.30;;;13.70;;
69551;SDS011;63774;45.292;11.784;2024-01-15T01:42:03;19.50;;;13.20;;
69551;SDS011;63774;45.292;11.784;2024-01-15T01:44:29;19.80;;;12.60;;
69551;SDS011;63774;45.292;11.784;2024-01-15T01:46:55;18.60;;;12.30;;
69551;SDS011;63774;45.292;11.784;2024-01-15T01:49:22;19.70;;;12.70;;
69551;SDS011;63774;45.292;11.784;2024-01-15T01:51:48;19.50;;;13.40;;
69551;SDS011;63774;45.292;11.784;2024-01-15T01:54:14;19.00;;;12.80;;
69551;SDS011;63774;45.292;11.784;2024-01-15T01:56:40;18.90;;;12.00;;
69551;SDS011;63774;45.292;11.784;2024-01-15T01:59:06;19.00;;;12.80;;
69551;SDS011;63774;45.292;11.784;2024-01-15T02:01:34;20.50;;;13.00;;
69551;SDS011;63774;45.292;11.784;2024-01-15T02:04:00;21.90;;;13.20;;
69551;SDS011;63774;45.292;11.784;2024-01-15T02:06:26;19.90;;;13.10;;
69551;SDS011;63774;45.292;11.784;2024-01-15T02:08:52;17.10;;;12.00;;
69551;SDS011;63774;45.292;11.784;2024-01-15T02:11:18;19.40;;;12.70;;
69551;SDS011;63774;45.292;11.784;2024-01-15T02:13:43;20.20;;;13.00;;
69551;SDS011;63774;45.292;11.784;2024-01-15T02:16:09;18.50;;;12.50;;
69551;SDS011;63774;45.292;11.784;2024-01-15T02:18:44;17.70;;;12.60;;
69551;SDS011;63774;45.292;11.784;2024-01-15T02:21:10;18.30;;;12.00;;
69551;SDS011;63774;45.292;11.784;2024-01-15T02:23:36;17.00;;;12.20;;
69551;SDS011;63774;45.292;11.784;2024-01-15T02:26:02;18.60;;;12.70;;
69551;SDS011;63774;45.292;11.784;2024-01-15T02:28:28;17.80;;;12.60;;
69551;SDS011;63774;45.292;11.784;2024-01-15T02:30:54;18.00;;;12.50;;
69551;SDS011;63774;45.292;11.784;2024-01-15T02:33:20;16.60;;;11.70;;
69551;SDS011;63774;45.292;11.784;2024-01-15T02:35:45;16.50;;;11.30;;
69551;SDS011;63774;45.292;11.784;2024-01-15T02:38:15;17.30;;;11.90;;
69551;SDS011;63774;45.292;11.784;2024-01-15T02:40:41;19.40;;;12.20;;
69551;SDS011;63774;45.292;11.784;2024-01-15T02:43:07;18.00;;;12.50;;
69551;SDS011;63774;45.292;11.784;2024-01-15T02:45:32;17.30;;;12.30;;
69551;SDS011;63774;45.292;11.784;2024-01-15T02:47:58;15.90;;;10.90;;
69551;SDS011;63774;45.292;11.784;2024-01-15T02:50:23;18.00;;;11.70;;
69551;SDS011;63774;45.292;11.784;2024-01-15T02:52:49;17.90;;;11.80;;
69551;SDS011;63774;45.292;11.784;2024-01-15T02:55:14;17.80;;;11.80;;
69551;SDS011;63774;45.292;11.784;2024-01-15T02:57:40;18.50;;;12.60;;
69551;SDS011;63774;45.292;11.784;2024-01-15T03:00:05;17.90;;;12.10;;
69551;SDS011;63774;45.292;11.784;2024-01-15T03:02:32;18.10;;;11.80;;
69551;SDS011;63774;45.292;11.784;2024-01-15T03:04:58;19.60;;;12.30;;
69551;SDS011;63774;45.292;11.784;2024-01-15T03:07:23;18.20;;;12.10;;
69551;SDS011;63774;45.292;11.784;2024-01-15T03:09:48;17.50;;;11.90;;
69551;SDS011;63774;45.292;11.784;2024-01-15T03:12:14;18.60;;;12.20;;
69551;SDS011;63774;45.292;11.784;2024-01-15T03:14:40;18.50;;;11.90;;
69551;SDS011;63774;45.292;11.784;2024-01-15T03:17:06;18.90;;;12.20;;
69551;SDS011;63774;45.292;11.784;2024-01-15T03:19:34;17.80;;;12.10;;
69551;SDS011;63774;45.292;11.784;2024-01-15T03:22:00;17.30;;;11.60;;
69551;SDS011;63774;45.292;11.784;2024-01-15T03:24:27;19.20;;;12.00;;
69551;SDS011;63774;45.292;11.784;2024-01-15T03:26:53;18.70;;;12.20;;
69551;SDS011;63774;45.292;11.784;2024-01-15T03:29:18;17.50;;;11.60;;
69551;SDS011;63774;45.292;11.784;2024-01-15T03:31:44;17.30;;;11.50;;
69551;SDS011;63774;45.292;11.784;2024-01-15T03:34:09;16.90;;;11.40;;
69551;SDS011;63774;45.292;11.784;2024-01-15T03:36:34;18.10;;;12.10;;
69551;SDS011;63774;45.292;11.784;2024-01-15T03:39:00;16.50;;;11.10;;
69551;SDS011;63774;45.292;11.784;2024-01-15T03:41:25;16.60;;;11.50;;
69551;SDS011;63774;45.292;11.784;2024-01-15T03:43:51;18.20;;;11.90;;
69551;SDS011;63774;45.292;11.784;2024-01-15T03:46:16;17.30;;;11.30;;
69551;SDS011;63774;45.292;11.784;2024-01-15T03:48:42;15.90;;;11.20;;
69551;SDS011;63774;45.292;11.784;2024-01-15T03:51:07;18.00;;;11.70;;
69551;SDS011;63774;45.292;11.784;2024-01-15T03:53:32;17.90;;;11.20;;
69551;SDS011;63774;45.292;11.784;2024-01-15T03:55:58;17.50;;;11.50;;
69551;SDS011;63774;45.292;11.784;2024-01-15T03:58:23;16.80;;;11.30;;
69551;SDS011;63774;45.292;11.784;2024-01-15T04:00:49;17.00;;;10.90;;
69551;SDS011;63774;45.292;11.784;2024-01-15T04:03:15;16.70;;;11.40;;
69551;SDS011;63774;45.292;11.784;2024-01-15T04:05:40;16.30;;;10.90;;
69551;SDS011;63774;45.292;11.784;2024-01-15T04:08:05;15.80;;;11.20;;
69551;SDS011;63774;45.292;11.784;2024-01-15T04:10:31;16.30;;;11.10;;
69551;SDS011;63774;45.292;11.784;2024-01-15T04:12:56;17.70;;;11.50;;
69551;SDS011;63774;45.292;11.784;2024-01-15T04:15:24;16.70;;;11.70;;
69551;SDS011;63774;45.292;11.784;2024-01-15T04:17:50;19.50;;;11.80;;
69551;SDS011;63774;45.292;11.784;2024-01-15T04:20:16;16.90;;;10.70;;
69551;SDS011;63774;45.292;11.784;2024-01-15T04:22:41;17.80;;;11.50;;
69551;SDS011;63774;45.292;11.784;2024-01-15T04:25:07;16.00;;;11.10;;
69551;SDS011;63774;45.292;11.784;2024-01-15T04:27:32;16.30;;;11.40;;
69551;SDS011;63774;45.292;11.784;2024-01-15T04:29:57;16.30;;;11.30;;
69551;SDS011;63774;45.292;11.784;2024-01-15T04:32:23;15.60;;;10.90;;
69551;SDS011;63774;45.292;11.784;2024-01-15T04:34:48;17.00;;;11.40;;
69551;SDS011;63774;45.292;11.784;2024-01-15T04:37:14;15.50;;;10.80;;
69551;SDS011;63774;45.292;11.784;2024-01-15T04:39:39;16.70;;;11.30;;
69551;SDS011;63774;45.292;11.784;2024-01-15T04:42:04;16.70;;;11.00;;
69551;SDS011;63774;45.292;11.784;2024-01-15T04:44:30;16.30;;;11.10;;
69551;SDS011;63774;45.292;11.784;2024-01-15T04:46:55;18.00;;;11.10;;
69551;SDS011;63774;45.292;11.784;2024-01-15T04:49:21;16.30;;;10.80;;
69551;SDS011;63774;45.292;11.784;2024-01-15T04:51:46;15.90;;;10.90;;
69551;SDS011;63774;45.292;11.784;2024-01-15T04:54:12;15.00;;;10.60;;
69551;SDS011;63774;45.292;11.784;2024-01-15T04:56:37;15.20;;;11.00;;
69551;SDS011;63774;45.292;11.784;2024-01-15T04:59:03;15.80;;;10.70;;
69551;SDS011;63774;45.292;11.784;2024-01-15T05:01:31;15.00;;;10.20;;
69551;SDS011;63774;45.292;11.784;2024-01-15T05:03:57;17.30;;;11.20;;
69551;SDS011;63774;45.292;11.784;2024-01-15T05:06:23;17.70;;;11.50;;
69551;SDS011;63774;45.292;11.784;2024-01-15T05:08:48;16.00;;;10.80;;
69551;SDS011;63774;45.292;11.784;2024-01-15T05:11:14;16.70;;;10.80;;
69551;SDS011;63774;45.292;11.784;2024-01-15T05:13:39;15.00;;;10.00;;
69551;SDS011;63774;45.292;11.784;2024-01-15T05:16:05;14.80;;;10.40;;
69551;SDS011;63774;45.292;11.784;2024-01-15T05:18:31;15.80;;;10.40;;
69551;SDS011;63774;45.292;11.784;2024-01-15T05:20:56;16.60;;;10.20;;
69551;SDS011;63774;45.292;11.784;2024-01-15T05:23:22;14.60;;;9.80;;
69551;SDS011;63774;45.292;11.784;2024-01-15T05:25:47;16.10;;;11.10;;
69551;SDS011;63774;45.292;11.784;2024-01-15T05:28:13;15.50;;;10.80;;
69551;SDS011;63774;45.292;11.784;2024-01-15T05:30:39;15.60;;;10.30;;
69551;SDS011;63774;45.292;11.784;2024-01-15T05:33:04;15.30;;;10.50;;
69551;SDS011;63774;45.292;11.784;2024-01-15T05:35:30;16.60;;;10.90;;
69551;SDS011;63774;45.292;11.784;2024-01-15T05:37:55;14.80;;;9.70;;
69551;SDS011;63774;45.292;11.784;2024-01-15T05:40:21;14.80;;;9.90;;
69551;SDS011;63774;45.292;11.784;2024-01-15T05:42:46;15.20;;;10.30;;
69551;SDS011;63774;45.292;11.784;2024-01-15T05:45:12;14.40;;;9.80;;
69551;SDS011;63774;45.292;11.784;2024-01-15T05:47:39;15.00;;;10.50;;
69551;SDS011;63774;45.292;11.784;2024-01-15T05:50:04;15.30;;;10.40;;
69551;SDS011;63774;45.292;11.784;2024-01-15T05:52:30;16.30;;;10.20;;
69551;SDS011;63774;45.292;11.784;2024-01-15T05:54:55;15.00;;;10.30;;
69551;SDS011;63774;45.292;11.784;2024-01-15T05:57:21;16.50;;;10.70;;
69551;SDS011;63774;45.292;11.784;2024-01-15T05:59:47;16.10;;;10.20;;
69551;SDS011;63774;45.292;11.784;2024-01-15T06:02:12;14.40;;;10.20;;
69551;SDS011;63774;45.292;11.784;2024-01-15T06:04:38;14.70;;;9.70;;
69551;SDS011;63774;45.292;11.784;2024-01-15T06:07:03;13.70;;;10.20;;
69551;SDS011;63774;45.292;11.784;2024-01-15T06:09:28;16.20;;;10.70;;
69551;SDS011;63774;45.292;11.784;2024-01-15T06:11:54;14.20;;;10.20;;
69551;SDS011;63774;45.292;11.784;2024-01-15T06:14:20;15.60;;;10.20;;
69551;SDS011;63774;45.292;11.784;2024-01-15T06:16:45;16.00;;;11.00;;
69551;SDS011;63774;45.292;11.784;2024-01-15T06:19:11;15.50;;;10.80;;
69551;SDS011;63774;45.292;11.784;2024-01-15T06:21:36;16.60;;;10.50;;
69551;SDS011;63774;45.292;11.784;2024-01-15T06:24:02;16.10;;;10.50;;
69551;SDS011;63774;45.292;11.784;2024-01-15T06:26:27;15.40;;;10.00;;
69551;SDS011;63774;45.292;11.784;2024-01-15T06:28:53;15.40;;;9.80;;
69551;SDS011;63774;45.292;11.784;2024-01-15T06:31:18;17.10;;;10.80;;
69551;SDS011;63774;45.292;11.784;2024-01-15T06:33:44;16.30;;;10.70;;
69551;SDS011;63774;45.292;11.784;2024-01-15T06:36:12;15.90;;;10.00;;
69551;SDS011;63774;45.292;11.784;2024-01-15T06:38:37;13.90;;;9.90;;
69551;SDS011;63774;45.292;11.784;2024-01-15T06:41:03;15.60;;;10.10;;
69551;SDS011;63774;45.292;11.784;2024-01-15T06:43:28;14.90;;;10.10;;
69551;SDS011;63774;45.292;11.784;2024-01-15T06:45:54;15.80;;;10.50;;
69551;SDS011;63774;45.292;11.784;2024-01-15T06:48:19;15.70;;;10.30;;
69551;SDS011;63774;45.292;11.784;2024-01-15T06:50:45;14.70;;;10.40;;
69551;SDS011;63774;45.292;11.784;2024-01-15T06:53:10;15.40;;;10.60;;
69551;SDS011;63774;45.292;11.784;2024-01-15T06:55:36;14.70;;;10.40;;
69551;SDS011;63774;45.292;11.784;2024-01-15T06:58:02;16.10;;;10.80;;
69551;SDS011;63774;45.292;11.784;2024-01-15T07:00:28;16.60;;;10.90;;
69551;SDS011;63774;45.292;11.784;2024-01-15T07:02:54;15.20;;;10.40;;
69551;SDS011;63774;45.292;11.784;2024-01-15T07:05:20;15.30;;;10.50;;
69551;SDS011;63774;45.292;11.784;2024-01-15T07:07:46;16.30;;;10.70;;
69551;SDS011;63774;45.292;11.784;2024-01-15T07:10:12;16.70;;;11.00;;
69551;SDS011;63774;45.292;11.784;2024-01-15T07:12:38;16.30;;;10.80;;
69551;SDS011;63774;45.292;11.784;2024-01-15T07:15:04;16.40;;;10.50;;
69551;SDS011;63774;45.292;11.784;2024-01-15T07:17:32;15.30;;;10.70;;
69551;SDS011;63774;45.292;11.784;2024-01-15T07:19:58;15.50;;;10.70;;
69551;SDS011;63774;45.292;11.784;2024-01-15T07:22:25;15.90;;;10.90;;
69551;SDS011;63774;45.292;11.784;2024-01-15T07:24:50;15.70;;;10.90;;
69551;SDS011;63774;45.292;11.784;2024-01-15T07:27:16;17.70;;;11.00;;
69551;SDS011;63774;45.292;11.784;2024-01-15T07:29:41;15.40;;;10.90;;
69551;SDS011;63774;45.292;11.784;2024-01-15T07:32:08;15.60;;;10.70;;
69551;SDS011;63774;45.292;11.784;2024-01-15T07:34:33;16.40;;;11.00;;
69551;SDS011;63774;45.292;11.784;2024-01-15T07:36:59;15.10;;;10.30;;
69551;SDS011;63774;45.292;11.784;2024-01-15T07:39:24;15.40;;;10.90;;
69551;SDS011;63774;45.292;11.784;2024-01-15T07:41:50;15.20;;;10.60;;
69551;SDS011;63774;45.292;11.784;2024-01-15T07:44:16;17.10;;;10.60;;
69551;SDS011;63774;45.292;11.784;2024-01-15T07:46:48;15.30;;;10.10;;
69551;SDS011;63774;45.292;11.784;2024-01-15T07:49:13;17.10;;;10.50;;
69551;SDS011;63774;45.292;11.784;2024-01-15T07:51:39;15.20;;;9.90;;
69551;SDS011;63774;45.292;11.784;2024-01-15T07:54:05;16.40;;;11.00;;
69551;SDS011;63774;45.292;11.784;2024-01-15T07:56:32;16.30;;;10.70;;
69551;SDS011;63774;45.292;11.784;2024-01-15T07:58:57;13.40;;;9.70;;
69551;SDS011;63774;45.292;11.784;2024-01-15T08:01:23;16.00;;;10.60;;
69551;SDS011;63774;45.292;11.784;2024-01-15T08:03:49;15.40;;;10.50;;
69551;SDS011;63774;45.292;11.784;2024-01-15T08:06:14;17.30;;;11.20;;
69551;SDS011;63774;45.292;11.784;2024-01-15T08:08:40;15.90;;;10.40;;
69551;SDS011;63774;45.292;11.784;2024-01-15T08:11:06;15.40;;;10.10;;
69551;SDS011;63774;45.292;11.784;2024-01-15T08:13:31;15.00;;;9.90;;
69551;SDS011;63774;45.292;11.784;2024-01-15T08:15:56;14.50;;;10.00;;
69551;SDS011;63774;45.292;11.784;2024-01-15T08:18:22;14.60;;;9.90;;
69551;SDS011;63774;45.292;11.784;2024-01-15T08:20:48;14.10;;;9.60;;
69551;SDS011;63774;45.292;11.784;2024-01-15T08:23:13;14.70;;;9.90;;
69551;SDS011;63774;45.292;11.784;2024-01-15T08:25:40;13.70;;;9.40;;
69551;SDS011;63774;45.292;11.784;2024-01-15T08:28:05;13.90;;;9.60;;
69551;SDS011;63774;45.292;11.784;2024-01-15T08:30:30;14.30;;;9.50;;
69551;SDS011;63774;45.292;11.784;2024-01-15T08:32:56;13.30;;;9.40;;
69551;SDS011;63774;45.292;11.784;2024-01-15T08:35:22;15.20;;;9.30;;
69551;SDS011;63774;45.292;11.784;2024-01-15T08:37:54;13.90;;;9.80;;
69551;SDS011;63774;45.292;11.784;2024-01-15T08:40:21;14.20;;;9.30;;
69551;SDS011;63774;45.292;11.784;2024-01-15T08:42:46;16.10;;;10.50;;
69551;SDS011;63774;45.292;11.784;2024-01-15T08:45:12;14.40;;;9.20;;
69551;SDS011;63774;45.292;11.784;2024-01-15T08:47:37;14.00;;;9.50;;
69551;SDS011;63774;45.292;11.784;2024-01-15T08:50:03;12.20;;;8.80;;
69551;SDS011;63774;45.292;11.784;2024-01-15T08:52:29;14.50;;;9.60;;
69551;SDS011;63774;45.292;11.784;2024-01-15T08:54:56;14.00;;;9.80;;
69551;SDS011;63774;45.292;11.784;2024-01-15T08:57:21;14.60;;;9.80;;
69551;SDS011;63774;45.292;11.784;2024-01-15T08:59:47;13.60;;;9.30;;
69551;SDS011;63774;45.292;11.784;2024-01-15T09:02:12;13.70;;;9.60;;
69551;SDS011;63774;45.292;11.784;2024-01-15T09:04:38;14.60;;;10.20;;
69551;SDS011;63774;45.292;11.784;2024-01-15T09:07:04;13.10;;;9.40;;
69551;SDS011;63774;45.292;11.784;2024-01-15T09:09:29;14.50;;;9.50;;
69551;SDS011;63774;45.292;11.784;2024-01-15T09:11:55;13.20;;;9.70;;
69551;SDS011;63774;45.292;11.784;2024-01-15T09:14:20;13.40;;;9.40;;
69551;SDS011;63774;45.292;11.784;2024-01-15T09:16:47;13.90;;;9.60;;
69551;SDS011;63774;45.292;11.784;2024-01-15T09:19:13;13.00;;;9.30;;
69551;SDS011;63774;45.292;11.784;2024-01-15T09:21:38;12.30;;;8.90;;
69551;SDS011;63774;45.292;11.784;2024-01-15T09:24:05;13.60;;;9.00;;
69551;SDS011;63774;45.292;11.784;2024-01-15T09:26:30;13.70;;;9.50;;
69551;SDS011;63774;45.292;11.784;2024-01-15T09:28:56;13.90;;;9.60;;
69551;SDS011;63774;45.292;11.784;2024-01-15T09:31:22;15.20;;;9.90;;
69551;SDS011;63774;45.292;11.784;2024-01-15T09:33:48;14.20;;;9.30;;
69551;SDS011;63774;45.292;11.784;2024-01-15T09:36:17;14.50;;;9.80;;
69551;SDS011;63774;45.292;11.784;2024-01-15T09:38:43;14.60;;;10.10;;
69551;SDS011;63774;45.292;11.784;2024-01-15T09:41:09;13.60;;;9.70;;
69551;SDS011;63774;45.292;11.784;2024-01-15T09:43:36;15.70;;;10.00;;
69551;SDS011;63774;45.292;11.784;2024-01-15T09:46:03;15.10;;;10.40;;
69551;SDS011;63774;45.292;11.784;2024-01-15T09:48:29;13.80;;;9.60;;
69551;SDS011;63774;45.292;11.784;2024-01-15T09:50:55;12.90;;;9.20;;
69551;SDS011;63774;45.292;11.784;2024-01-15T09:53:23;15.40;;;9.80;;
69551;SDS011;63774;45.292;11.784;2024-01-15T09:55:50;13.70;;;9.90;;
69551;SDS011;63774;45.292;11.784;2024-01-15T09:58:16;13.80;;;9.50;;
69551;SDS011;63774;45.292;11.784;2024-01-15T10:00:42;13.90;;;9.50;;
69551;SDS011;63774;45.292;11.784;2024-01-15T10:03:15;14.10;;;9.50;;
69551;SDS011;63774;45.292;11.784;2024-01-15T10:05:40;13.70;;;9.40;;
69551;SDS011;63774;45.292;11.784;2024-01-15T10:08:06;12.80;;;9.30;;
69551;SDS011;63774;45.292;11.784;2024-01-15T10:10:32;13.20;;;9.10;;
69551;SDS011;63774;45.292;11.784;2024-01-15T10:12:58;15.40;;;9.50;;
69551;SDS011;63774;45.292;11.784;2024-01-15T10:15:27;13.00;;;9.20;;
69551;SDS011;63774;45.292;11.784;2024-01-15T10:17:53;13.20;;;9.00;;
69551;SDS011;63774;45.292;11.784;2024-01-15T10:20:19;12.40;;;9.30;;
69551;SDS011;63774;45.292;11.784;2024-01-15T10:22:47;13.20;;;8.60;;
69551;SDS011;63774;45.292;11.784;2024-01-15T10:25:16;12.90;;;8.90;;
69551;SDS011;63774;45.292;11.784;2024-01-15T10:27:47;12.60;;;8.90;;
69551;SDS011;63774;45.292;11.784;2024-01-15T10:30:28;14.40;;;8.70;;
69551;SDS011;63774;45.292;11.784;2024-01-15T10:33:00;12.30;;;8.40;;
69551;SDS011;63774;45.292;11.784;2024-01-15T10:35:27;14.10;;;9.00;;
69551;SDS011;63774;45.292;11.784;2024-01-15T10:37:54;12.70;;;9.00;;
69551;SDS011;63774;45.292;11.784;2024-01-15T10:40:20;11.50;;;8.50;;
69551;SDS011;63774;45.292;11.784;2024-01-15T10:42:45;12.30;;;8.80;;
69551;SDS011;63774;45.292;11.784;2024-01-15T10:45:12;12.70;;;8.70;;
69551;SDS011;63774;45.292;11.784;2024-01-15T10:47:38;12.30;;;8.70;;
69551;SDS011;63774;45.292;11.784;2024-01-15T10:50:04;12.60;;;8.40;;
69551;SDS011;63774;45.292;11.784;2024-01-15T10:52:32;12.00;;;8.50;;
69551;SDS011;63774;45.292;11.784;2024-01-15T10:54:59;12.00;;;8.60;;
69551;SDS011;63774;45.292;11.784;2024-01-15T10:57:26;10.60;;;7.90;;
69551;SDS011;63774;45.292;11.784;2024-01-15T10:59:52;12.60;;;8.60;;
69551;SDS011;63774;45.292;11.784;2024-01-15T11:02:18;16.80;;;8.40;;
69551;SDS011;63774;45.292;11.784;2024-01-15T11:04:43;13.60;;;8.50;;
69551;SDS011;63774;45.292;11.784;2024-01-15T11:07:09;15.00;;;8.10;;
69551;SDS011;63774;45.292;11.784;2024-01-15T11:09:36;14.70;;;8.60;;
69551;SDS011;63774;45.292;11.784;2024-01-15T11:12:15;16.20;;;8.50;;
69551;SDS011;63774;45.292;11.784;2024-01-15T11:14:48;12.90;;;8.40;;
69551;SDS011;63774;45.292;11.784;2024-01-15T11:17:15;11.60;;;8.20;;
69551;SDS011;63774;45.292;11.784;2024-01-15T11:25:02;12.40;;;8.40;;
69551;SDS011;63774;45.292;11.784;2024-01-15T11:27:42;12.40;;;8.80;;
69551;SDS011;63774;45.292;11.784;2024-01-15T11:30:09;13.40;;;8.80;;
69551;SDS011;63774;45.292;11.784;2024-01-15T11:32:38;15.50;;;8.30;;
69551;SDS011;63774;45.292;11.784;2024-01-15T11:35:07;11.10;;;7.70;;
69551;SDS011;63774;45.292;11.784;2024-01-15T11:40:23;12.80;;;8.30;;
69551;SDS011;63774;45.292;11.784;2024-01-15T11:43:02;10.70;;;7.60;;
69551;SDS011;63774;45.292;11.784;2024-01-15T11:45:29;11.40;;;8.20;;
69551;SDS011;63774;45.292;11.784;2024-01-15T11:48:14;11.80;;;8.30;;
69551;SDS011;63774;45.292;11.784;2024-01-15T11:50:42;11.60;;;7.90;;
69551;SDS011;63774;45.292;11.784;2024-01-15T11:56:01;10.60;;;7.60;;
69551;SDS011;63774;45.292;11.784;2024-01-15T11:58:28;12.60;;;8.00;;
69551;SDS011;63774;45.292;11.784;2024-01-15T12:00:54;11.20;;;7.90;;
69551;SDS011;63774;45.292;11.784;2024-01-15T12:03:21;10.20;;;7.60;;
69551;SDS011;63774;45.292;11.784;2024-01-15T12:05:47;11.50;;;8.00;;
69551;SDS011;63774;45.292;11.784;2024-01-15T12:08:13;10.50;;;7.50;;
69551;SDS011;63774;45.292;11.784;2024-01-15T12:10:39;10.20;;;7.90;;
69551;SDS011;63774;45.292;11.784;2024-01-15T12:15:38;11.80;;;8.00;;
69551;SDS011;63774;45.292;11.784;2024-01-15T12:18:07;11.70;;;7.70;;
69551;SDS011;63774;45.292;11.784;2024-01-15T12:20:33;11.40;;;7.80;;
69551;SDS011;63774;45.292;11.784;2024-01-15T12:22:59;11.20;;;7.80;;
69551;SDS011;63774;45.292;11.784;2024-01-15T12:25:26;10.80;;;7.60;;
69551;SDS011;63774;45.292;11.784;2024-01-15T12:27:53;12.70;;;8.20;;
69551;SDS011;63774;45.292;11.784;2024-01-15T12:30:19;10.40;;;7.60;;
69551;SDS011;63774;45.292;11.784;2024-01-15T12:32:45;10.50;;;7.20;;
69551;SDS011;63774;45.292;11.784;2024-01-15T12:35:12;10.80;;;7.10;;
69551;SDS011;63774;45.292;11.784;2024-01-15T12:37:42;10.30;;;7.20;;
69551;SDS011;63774;45.292;11.784;2024-01-15T12:40:08;11.20;;;7.20;;
69551;SDS011;63774;45.292;11.784;2024-01-15T12:42:44;9.60;;;6.90;;
69551;SDS011;63774;45.292;11.784;2024-01-15T12:45:11;10.90;;;7.20;;
69551;SDS011;63774;45.292;11.784;2024-01-15T12:47:38;9.60;;;6.80;;
69551;SDS011;63774;45.292;11.784;2024-01-15T12:50:07;10.00;;;7.00;;
69551;SDS011;63774;45.292;11.784;2024-01-15T12:52:34;11.00;;;7.50;;
69551;SDS011;63774;45.292;11.784;2024-01-15T12:54:59;9.30;;;6.80;;
69551;SDS011;63774;45.292;11.784;2024-01-15T12:57:25;10.50;;;7.50;;
69551;SDS011;63774;45.292;11.784;2024-01-15T12:59:50;10.10;;;6.50;;
69551;SDS011;63774;45.292;11.784;2024-01-15T13:02:16;9.30;;;6.90;;
69551;SDS011;63774;45.292;11.784;2024-01-15T13:04:42;10.80;;;7.70;;
69551;SDS011;63774;45.292;11.784;2024-01-15T13:07:08;10.20;;;6.90;;
69551;SDS011;63774;45.292;11.784;2024-01-15T13:09:34;10.50;;;7.00;;
69551;SDS011;63774;45.292;11.784;2024-01-15T13:12:03;11.30;;;7.50;;
69551;SDS011;63774;45.292;11.784;2024-01-15T13:14:30;11.30;;;7.50;;
69551;SDS011;63774;45.292;11.784;2024-01-15T13:16:56;10.00;;;7.00;;
69551;SDS011;63774;45.292;11.784;2024-01-15T13:19:22;9.60;;;6.70;;
69551;SDS011;63774;45.292;11.784;2024-01-15T13:21:48;10.70;;;6.70;;
69551;SDS011;63774;45.292;11.784;2024-01-15T13:24:15;10.20;;;6.70;;
69551;SDS011;63774;45.292;11.784;2024-01-15T13:26:40;11.10;;;7.60;;
69551;SDS011;63774;45.292;11.784;2024-01-15T13:29:05;11.30;;;7.40;;
69551;SDS011;63774;45.292;11.784;2024-01-15T13:31:33;10.50;;;7.40;;
69551;SDS011;63774;45.292;11.784;2024-01-15T13:33:58;10.00;;;7.10;;
69551;SDS011;63774;45.292;11.784;2024-01-15T13:36:25;9.70;;;7.40;;
69551;SDS011;63774;45.292;11.784;2024-01-15T13:38:53;12.30;;;7.60;;
69551;SDS011;63774;45.292;11.784;2024-01-15T13:41:19;10.60;;;7.50;;
69551;SDS011;63774;45.292;11.784;2024-01-15T13:43:52;12.50;;;7.80;;
69551;SDS011;63774;45.292;11.784;2024-01-15T13:46:19;11.30;;;7.40;;
69551;SDS011;63774;45.292;11.784;2024-01-15T13:48:46;10.10;;;7.60;;
69551;SDS011;63774;45.292;11.784;2024-01-15T13:51:12;10.50;;;7.20;;
69551;SDS011;63774;45.292;11.784;2024-01-15T13:53:38;11.20;;;7.70;;
69551;SDS011;63774;45.292;11.784;2024-01-15T13:56:07;10.90;;;7.40;;
69551;SDS011;63774;45.292;11.784;2024-01-15T13:58:33;11.20;;;8.00;;
69551;SDS011;63774;45.292;11.784;2024-01-15T14:00:59;11.50;;;7.70;;
69551;SDS011;63774;45.292;11.784;2024-01-15T14:03:25;12.30;;;8.20;;
69551;SDS011;63774;45.292;11.784;2024-01-15T14:05:54;11.30;;;7.40;;
69551;SDS011;63774;45.292;11.784;2024-01-15T14:08:19;10.60;;;7.00;;
69551;SDS011;63774;45.292;11.784;2024-01-15T14:10:44;12.10;;;8.00;;
69551;SDS011;63774;45.292;11.784;2024-01-15T14:13:10;11.30;;;7.80;;
69551;SDS011;63774;45.292;11.784;2024-01-15T14:15:36;13.10;;;8.20;;
69551;SDS011;63774;45.292;11.784;2024-01-15T14:18:02;11.20;;;8.30;;
69551;SDS011;63774;45.292;11.784;2024-01-15T14:20:28;12.10;;;7.80;;
69551;SDS011;63774;45.292;11.784;2024-01-15T14:22:53;12.00;;;7.60;;